sensor_id;sensor_type;location;lat;lon;timestamp;P1;durP1;ratioP1;P2;durP2;ratioP2
84355;SDS011;74539;43.518;1.504;2024-03-23T00:51:24;5.88;;;2.90;;
84355;SDS011;74539;43.518;1.504;2024-03-23T00:53:50;5.40;;;2.80;;
84355;SDS011;74539;43.518;1.504;2024-03-23T00:56:16;5.40;;;3.13;;
84355;SDS011;74539;43.518;1.504;2024-03-23T00:58:42;5.13;;;2.95;;
84355;SDS011;74539;43.518;1.504;2024-03-23T01:01:07;5.40;;;2.90;;
84355;SDS011;74539;43.518;1.504;2024-03-23T01:03:33;6.53;;;3.20;;
84355;SDS011;74539;43.518;1.504;2024-03-23T01:05:59;5.45;;;3.10;;
84355;SDS011;74539;43.518;1.504;2024-03-23T01:08:26;5.22;;;3.13;;
84355;SDS011;74539;43.518;1.504;2024-03-23T01:10:58;4.95;;;2.90;;
84355;SDS011;74539;43.518;1.504;2024-03-23T01:13:25;4.85;;;3.00;;
84355;SDS011;74539;43.518;1.504;2024-03-23T01:15:51;6.05;;;2.70;;
84355;SDS011;74539;43.518;1.504;2024-03-23T01:18:17;5.65;;;3.03;;
84355;SDS011;74539;43.518;1.504;2024-03-23T01:20:44;5.32;;;3.00;;
84355;SDS011;74539;43.518;1.504;2024-03-23T01:23:10;5.88;;;3.22;;
84355;SDS011;74539;43.518;1.504;2024-03-23T01:25:36;5.20;;;2.90;;
84355;SDS011;74539;43.518;1.504;2024-03-23T01:28:02;5.18;;;2.95;;
84355;SDS011;74539;43.518;1.504;2024-03-23T01:30:28;4.68;;;2.83;;
84355;SDS011;74539;43.518;1.504;2024-03-23T01:32:53;4.90;;;2.92;;
84355;SDS011;74539;43.518;1.504;2024-03-23T01:35:19;4.88;;;2.83;;
84355;SDS011;74539;43.518;1.504;2024-03-23T01:37:44;4.85;;;2.92;;
84355;SDS011;74539;43.518;1.504;2024-03-23T01:40:10;5.85;;;2.78;;
84355;SDS011;74539;43.518;1.504;2024-03-23T01:42:38;5.47;;;2.90;;
84355;SDS011;74539;43.518;1.504;2024-03-23T01:45:08;6.50;;;2.90;;
84355;SDS011;74539;43.518;1.504;2024-03-23T01:47:37;3.83;;;2.88;;
84355;SDS011;74539;43.518;1.504;2024-03-23T01:50:03;4.97;;;2.70;;
84355;SDS011;74539;43.518;1.504;2024-03-23T01:52:29;4.53;;;2.95;;
84355;SDS011;74539;43.518;1.504;2024-03-23T01:54:55;6.13;;;2.95;;
84355;SDS011;74539;43.518;1.504;2024-03-23T01:57:21;5.18;;;2.85;;
84355;SDS011;74539;43.518;1.504;2024-03-23T01:59:47;5.00;;;2.70;;
84355;SDS011;74539;43.518;1.504;2024-03-23T02:02:14;5.18;;;3.10;;
84355;SDS011;74539;43.518;1.504;2024-03-23T02:04:39;4.40;;;2.50;;
84355;SDS011;74539;43.518;1.504;2024-03-23T02:07:08;4.45;;;2.67;;
84355;SDS011;74539;43.518;1.504;2024-03-23T02:09:34;5.72;;;2.85;;
84355;SDS011;74539;43.518;1.504;2024-03-23T02:12:01;6.18;;;2.90;;
84355;SDS011;74539;43.518;1.504;2024-03-23T02:14:28;3.60;;;2.58;;
84355;SDS011;74539;43.518;1.504;2024-03-23T02:16:53;4.57;;;3.00;;
84355;SDS011;74539;43.518;1.504;2024-03-23T02:19:19;3.63;;;2.63;;
84355;SDS011;74539;43.518;1.504;2024-03-23T02:21:45;4.55;;;2.88;;
84355;SDS011;74539;43.518;1.504;2024-03-23T02:24:12;4.07;;;2.60;;
84355;SDS011;74539;43.518;1.504;2024-03-23T02:26:37;4.80;;;2.92;;
84355;SDS011;74539;43.518;1.504;2024-03-23T02:29:03;4.20;;;2.97;;
84355;SDS011;74539;43.518;1.504;2024-03-23T02:31:29;3.63;;;2.92;;
84355;SDS011;74539;43.518;1.504;2024-03-23T02:33:54;3.78;;;2.80;;
84355;SDS011;74539;43.518;1.504;2024-03-23T02:36:20;4.38;;;2.80;;
84355;SDS011;74539;43.518;1.504;2024-03-23T02:38:46;4.72;;;2.80;;
84355;SDS011;74539;43.518;1.504;2024-03-23T02:41:12;5.18;;;2.72;;
84355;SDS011;74539;43.518;1.504;2024-03-23T02:43:38;5.15;;;2.90;;
84355;SDS011;74539;43.518;1.504;2024-03-23T02:46:04;4.80;;;2.85;;
84355;SDS011;74539;43.518;1.504;2024-03-23T02:48:30;3.83;;;2.90;;
84355;SDS011;74539;43.518;1.504;2024-03-23T02:50:55;4.07;;;2.55;;
84355;SDS011;74539;43.518;1.504;2024-03-23T02:53:21;3.38;;;2.47;;
84355;SDS011;74539;43.518;1.504;2024-03-23T02:55:47;4.25;;;2.50;;
84355;SDS011;74539;43.518;1.504;2024-03-23T02:58:12;3.78;;;2.40;;
84355;SDS011;74539;43.518;1.504;2024-03-23T03:00:38;4.80;;;2.63;;
84355;SDS011;74539;43.518;1.504;2024-03-23T03:03:04;3.88;;;2.58;;
84355;SDS011;74539;43.518;1.504;2024-03-23T03:05:30;4.20;;;2.60;;
84355;SDS011;74539;43.518;1.504;2024-03-23T03:07:55;4.68;;;2.90;;
84355;SDS011;74539;43.518;1.504;2024-03-23T03:10:21;4.05;;;2.47;;
84355;SDS011;74539;43.518;1.504;2024-03-23T03:12:46;3.90;;;2.50;;
84355;SDS011;74539;43.518;1.504;2024-03-23T03:15:12;3.38;;;2.50;;
84355;SDS011;74539;43.518;1.504;2024-03-23T03:17:38;4.35;;;2.50;;
84355;SDS011;74539;43.518;1.504;2024-03-23T03:20:04;4.75;;;2.60;;
84355;SDS011;74539;43.518;1.504;2024-03-23T03:22:30;3.30;;;2.35;;
84355;SDS011;74539;43.518;1.504;2024-03-23T03:24:55;3.67;;;2.20;;
84355;SDS011;74539;43.518;1.504;2024-03-23T03:27:21;2.92;;;2.38;;
84355;SDS011;74539;43.518;1.504;2024-03-23T03:29:48;3.58;;;2.30;;
84355;SDS011;74539;43.518;1.504;2024-03-23T03:32:13;4.88;;;2.45;;
84355;SDS011;74539;43.518;1.504;2024-03-23T03:34:39;3.53;;;2.47;;
84355;SDS011;74539;43.518;1.504;2024-03-23T03:37:05;3.33;;;2.28;;
84355;SDS011;74539;43.518;1.504;2024-03-23T03:39:30;3.50;;;2.35;;
84355;SDS011;74539;43.518;1.504;2024-03-23T03:41:56;3.25;;;2.25;;
84355;SDS011;74539;43.518;1.504;2024-03-23T03:44:22;3.25;;;2.38;;
84355;SDS011;74539;43.518;1.504;2024-03-23T03:46:47;2.88;;;2.13;;
84355;SDS011;74539;43.518;1.504;2024-03-23T03:49:13;3.15;;;2.22;;
84355;SDS011;74539;43.518;1.504;2024-03-23T03:51:39;2.85;;;2.08;;
84355;SDS011;74539;43.518;1.504;2024-03-23T03:54:04;3.17;;;2.10;;
84355;SDS011;74539;43.518;1.504;2024-03-23T03:56:30;3.70;;;2.58;;
84355;SDS011;74539;43.518;1.504;2024-03-23T03:58:55;2.45;;;2.03;;
84355;SDS011;74539;43.518;1.504;2024-03-23T04:01:21;3.13;;;2.30;;
84355;SDS011;74539;43.518;1.504;2024-03-23T04:03:47;3.75;;;2.20;;
84355;SDS011;74539;43.518;1.504;2024-03-23T04:06:18;3.53;;;1.98;;
84355;SDS011;74539;43.518;1.504;2024-03-23T04:08:44;2.83;;;2.17;;
84355;SDS011;74539;43.518;1.504;2024-03-23T04:11:10;4.38;;;2.10;;
84355;SDS011;74539;43.518;1.504;2024-03-23T04:13:36;3.38;;;2.17;;
84355;SDS011;74539;43.518;1.504;2024-03-23T04:16:01;3.22;;;2.10;;
84355;SDS011;74539;43.518;1.504;2024-03-23T04:18:27;4.05;;;2.20;;
84355;SDS011;74539;43.518;1.504;2024-03-23T04:20:53;2.53;;;2.00;;
84355;SDS011;74539;43.518;1.504;2024-03-23T04:23:18;2.80;;;2.10;;
84355;SDS011;74539;43.518;1.504;2024-03-23T04:25:44;3.45;;;2.00;;
84355;SDS011;74539;43.518;1.504;2024-03-23T04:28:10;3.15;;;2.05;;
84355;SDS011;74539;43.518;1.504;2024-03-23T04:30:35;3.45;;;1.83;;
84355;SDS011;74539;43.518;1.504;2024-03-23T04:33:02;4.53;;;2.17;;
84355;SDS011;74539;43.518;1.504;2024-03-23T04:35:27;4.47;;;2.20;;
84355;SDS011;74539;43.518;1.504;2024-03-23T04:37:53;3.00;;;2.00;;
84355;SDS011;74539;43.518;1.504;2024-03-23T04:40:20;2.92;;;1.92;;
84355;SDS011;74539;43.518;1.504;2024-03-23T04:42:46;4.53;;;2.05;;
84355;SDS011;74539;43.518;1.504;2024-03-23T04:45:12;3.78;;;2.03;;
84355;SDS011;74539;43.518;1.504;2024-03-23T04:47:38;3.17;;;1.73;;
84355;SDS011;74539;43.518;1.504;2024-03-23T04:50:04;3.95;;;1.85;;
84355;SDS011;74539;43.518;1.504;2024-03-23T04:52:30;2.92;;;1.90;;
84355;SDS011;74539;43.518;1.504;2024-03-23T04:54:56;3.95;;;1.70;;
84355;SDS011;74539;43.518;1.504;2024-03-23T04:57:22;4.07;;;1.92;;
84355;SDS011;74539;43.518;1.504;2024-03-23T04:59:47;2.67;;;1.90;;
84355;SDS011;74539;43.518;1.504;2024-03-23T05:02:13;3.25;;;1.80;;
84355;SDS011;74539;43.518;1.504;2024-03-23T05:04:40;3.13;;;1.90;;
84355;SDS011;74539;43.518;1.504;2024-03-23T05:07:06;4.03;;;1.90;;
84355;SDS011;74539;43.518;1.504;2024-03-23T05:09:32;1.92;;;1.67;;
84355;SDS011;74539;43.518;1.504;2024-03-23T05:11:58;2.05;;;1.70;;
84355;SDS011;74539;43.518;1.504;2024-03-23T05:14:27;2.80;;;1.60;;
84355;SDS011;74539;43.518;1.504;2024-03-23T05:16:53;3.95;;;1.98;;
84355;SDS011;74539;43.518;1.504;2024-03-23T05:19:19;2.35;;;1.70;;
84355;SDS011;74539;43.518;1.504;2024-03-23T05:21:44;2.72;;;2.00;;
84355;SDS011;74539;43.518;1.504;2024-03-23T05:24:11;3.53;;;1.80;;
84355;SDS011;74539;43.518;1.504;2024-03-23T05:26:37;4.63;;;1.90;;
84355;SDS011;74539;43.518;1.504;2024-03-23T05:29:03;2.83;;;1.80;;
84355;SDS011;74539;43.518;1.504;2024-03-23T05:31:30;3.30;;;1.63;;
84355;SDS011;74539;43.518;1.504;2024-03-23T05:33:56;2.30;;;1.65;;
84355;SDS011;74539;43.518;1.504;2024-03-23T05:36:22;3.33;;;1.85;;
84355;SDS011;74539;43.518;1.504;2024-03-23T05:38:51;2.30;;;1.60;;
84355;SDS011;74539;43.518;1.504;2024-03-23T05:41:17;3.53;;;1.80;;
84355;SDS011;74539;43.518;1.504;2024-03-23T05:43:42;3.00;;;1.80;;
84355;SDS011;74539;43.518;1.504;2024-03-23T05:46:08;3.35;;;1.95;;
84355;SDS011;74539;43.518;1.504;2024-03-23T05:48:34;2.58;;;1.65;;
84355;SDS011;74539;43.518;1.504;2024-03-23T05:50:59;2.78;;;1.83;;
84355;SDS011;74539;43.518;1.504;2024-03-23T05:53:25;2.45;;;1.52;;
84355;SDS011;74539;43.518;1.504;2024-03-23T05:55:51;3.67;;;1.70;;
84355;SDS011;74539;43.518;1.504;2024-03-23T05:58:24;3.92;;;2.10;;
84355;SDS011;74539;43.518;1.504;2024-03-23T06:00:56;2.03;;;1.42;;
84355;SDS011;74539;43.518;1.504;2024-03-23T06:03:24;2.80;;;1.48;;
84355;SDS011;74539;43.518;1.504;2024-03-23T06:05:50;2.67;;;1.73;;
84355;SDS011;74539;43.518;1.504;2024-03-23T06:08:16;2.55;;;1.52;;
84355;SDS011;74539;43.518;1.504;2024-03-23T06:10:42;2.40;;;1.70;;
84355;SDS011;74539;43.518;1.504;2024-03-23T06:13:07;2.30;;;1.42;;
84355;SDS011;74539;43.518;1.504;2024-03-23T06:15:33;2.22;;;1.40;;
84355;SDS011;74539;43.518;1.504;2024-03-23T06:18:02;2.22;;;1.63;;
84355;SDS011;74539;43.518;1.504;2024-03-23T06:20:29;2.13;;;1.40;;
84355;SDS011;74539;43.518;1.504;2024-03-23T06:22:54;2.42;;;1.45;;
84355;SDS011;74539;43.518;1.504;2024-03-23T06:25:20;2.65;;;1.60;;
84355;SDS011;74539;43.518;1.504;2024-03-23T06:27:45;3.28;;;1.80;;
84355;SDS011;74539;43.518;1.504;2024-03-23T06:30:11;2.17;;;1.40;;
84355;SDS011;74539;43.518;1.504;2024-03-23T06:32:37;2.03;;;1.40;;
84355;SDS011;74539;43.518;1.504;2024-03-23T06:35:03;3.38;;;1.52;;
84355;SDS011;74539;43.518;1.504;2024-03-23T06:37:33;2.28;;;1.30;;
84355;SDS011;74539;43.518;1.504;2024-03-23T06:39:59;3.38;;;1.60;;
84355;SDS011;74539;43.518;1.504;2024-03-23T06:42:25;3.03;;;1.45;;
84355;SDS011;74539;43.518;1.504;2024-03-23T06:44:51;3.08;;;1.58;;
84355;SDS011;74539;43.518;1.504;2024-03-23T06:47:16;2.03;;;1.42;;
84355;SDS011;74539;43.518;1.504;2024-03-23T06:49:42;1.98;;;1.40;;
84355;SDS011;74539;43.518;1.504;2024-03-23T06:52:08;2.30;;;1.55;;
84355;SDS011;74539;43.518;1.504;2024-03-23T06:54:33;1.58;;;1.20;;
84355;SDS011;74539;43.518;1.504;2024-03-23T06:56:59;2.00;;;1.30;;
84355;SDS011;74539;43.518;1.504;2024-03-23T06:59:24;1.63;;;1.30;;
84355;SDS011;74539;43.518;1.504;2024-03-23T07:01:50;2.72;;;1.40;;
84355;SDS011;74539;43.518;1.504;2024-03-23T07:04:16;2.22;;;1.63;;
84355;SDS011;74539;43.518;1.504;2024-03-23T07:06:42;2.08;;;1.40;;
84355;SDS011;74539;43.518;1.504;2024-03-23T07:09:09;2.67;;;1.20;;
84355;SDS011;74539;43.518;1.504;2024-03-23T07:11:35;2.13;;;1.38;;
84355;SDS011;74539;43.518;1.504;2024-03-23T07:14:00;2.60;;;1.40;;
84355;SDS011;74539;43.518;1.504;2024-03-23T07:16:27;2.10;;;1.20;;
84355;SDS011;74539;43.518;1.504;2024-03-23T07:18:53;2.22;;;1.20;;
84355;SDS011;74539;43.518;1.504;2024-03-23T07:21:19;2.00;;;1.23;;
84355;SDS011;74539;43.518;1.504;2024-03-23T07:23:45;2.28;;;1.40;;
84355;SDS011;74539;43.518;1.504;2024-03-23T07:26:11;3.17;;;1.33;;
84355;SDS011;74539;43.518;1.504;2024-03-23T07:28:37;1.63;;;1.20;;
84355;SDS011;74539;43.518;1.504;2024-03-23T07:31:07;2.58;;;1.50;;
84355;SDS011;74539;43.518;1.504;2024-03-23T07:33:34;1.50;;;1.30;;
84355;SDS011;74539;43.518;1.504;2024-03-23T07:36:01;1.42;;;1.20;;
84355;SDS011;74539;43.518;1.504;2024-03-23T07:38:27;2.40;;;1.20;;
84355;SDS011;74539;43.518;1.504;2024-03-23T07:41:29;3.42;;;1.52;;
84355;SDS011;74539;43.518;1.504;2024-03-23T07:43:48;2.33;;;1.30;;
84355;SDS011;74539;43.518;1.504;2024-03-23T07:46:15;3.00;;;1.35;;
84355;SDS011;74539;43.518;1.504;2024-03-23T07:48:41;1.67;;;1.13;;
84355;SDS011;74539;43.518;1.504;2024-03-23T07:51:10;4.38;;;1.40;;
84355;SDS011;74539;43.518;1.504;2024-03-23T07:53:42;2.67;;;1.42;;
84355;SDS011;74539;43.518;1.504;2024-03-23T07:56:10;1.80;;;1.30;;
84355;SDS011;74539;43.518;1.504;2024-03-23T07:58:36;2.08;;;1.27;;
84355;SDS011;74539;43.518;1.504;2024-03-23T08:01:05;1.85;;;1.15;;
84355;SDS011;74539;43.518;1.504;2024-03-23T08:03:36;2.17;;;1.40;;
84355;SDS011;74539;43.518;1.504;2024-03-23T08:06:15;1.75;;;1.10;;
84355;SDS011;74539;43.518;1.504;2024-03-23T08:08:45;2.57;;;1.23;;
84355;SDS011;74539;43.518;1.504;2024-03-23T08:11:13;2.47;;;1.42;;
84355;SDS011;74539;43.518;1.504;2024-03-23T08:13:40;2.30;;;1.20;;
84355;SDS011;74539;43.518;1.504;2024-03-23T08:16:07;1.95;;;1.10;;
84355;SDS011;74539;43.518;1.504;2024-03-23T08:18:36;1.83;;;1.10;;
84355;SDS011;74539;43.518;1.504;2024-03-23T08:21:03;1.42;;;1.02;;
84355;SDS011;74539;43.518;1.504;2024-03-23T08:23:30;2.42;;;1.40;;
84355;SDS011;74539;43.518;1.504;2024-03-23T08:26:02;1.85;;;1.10;;
84355;SDS011;74539;43.518;1.504;2024-03-23T08:31:00;1.85;;;1.10;;
84355;SDS011;74539;43.518;1.504;2024-03-23T08:33:26;1.80;;;1.00;;
84355;SDS011;74539;43.518;1.504;2024-03-23T08:35:55;2.90;;;1.00;;
84355;SDS011;74539;43.518;1.504;2024-03-23T08:38:25;1.45;;;1.00;;
84355;SDS011;74539;43.518;1.504;2024-03-23T08:40:58;2.53;;;1.00;;
84355;SDS011;74539;43.518;1.504;2024-03-23T08:43:32;1.50;;;1.00;;
84355;SDS011;74539;43.518;1.504;2024-03-23T08:48:41;3.63;;;1.35;;
84355;SDS011;74539;43.518;1.504;2024-03-23T08:51:09;1.75;;;0.93;;
84355;SDS011;74539;43.518;1.504;2024-03-23T08:53:36;1.83;;;0.88;;
84355;SDS011;74539;43.518;1.504;2024-03-23T08:56:02;1.48;;;0.90;;
84355;SDS011;74539;43.518;1.504;2024-03-23T08:58:29;1.88;;;0.88;;
84355;SDS011;74539;43.518;1.504;2024-03-23T09:00:56;1.50;;;0.80;;
84355;SDS011;74539;43.518;1.504;2024-03-23T09:03:23;1.88;;;0.90;;
84355;SDS011;74539;43.518;1.504;2024-03-23T09:05:52;1.30;;;0.90;;
84355;SDS011;74539;43.518;1.504;2024-03-23T09:08:18;1.20;;;0.70;;
84355;SDS011;74539;43.518;1.504;2024-03-23T09:10:44;1.55;;;0.90;;
84355;SDS011;74539;43.518;1.504;2024-03-23T09:13:10;1.33;;;0.80;;
84355;SDS011;74539;43.518;1.504;2024-03-23T09:15:37;1.60;;;0.82;;
84355;SDS011;74539;43.518;1.504;2024-03-23T09:18:03;1.10;;;0.73;;
84355;SDS011;74539;43.518;1.504;2024-03-23T09:20:32;1.17;;;0.63;;
84355;SDS011;74539;43.518;1.504;2024-03-23T09:22:58;2.35;;;0.82;;
84355;SDS011;74539;43.518;1.504;2024-03-23T09:25:23;1.35;;;0.75;;
84355;SDS011;74539;43.518;1.504;2024-03-23T09:27:49;2.15;;;0.90;;
84355;SDS011;74539;43.518;1.504;2024-03-23T09:30:15;1.40;;;0.85;;
84355;SDS011;74539;43.518;1.504;2024-03-23T09:32:42;1.80;;;0.90;;
84355;SDS011;74539;43.518;1.504;2024-03-23T09:35:09;2.00;;;0.80;;
84355;SDS011;74539;43.518;1.504;2024-03-23T09:37:35;1.83;;;0.82;;
84355;SDS011;74539;43.518;1.504;2024-03-23T09:40:01;1.35;;;0.80;;
84355;SDS011;74539;43.518;1.504;2024-03-23T09:42:28;1.83;;;0.80;;
84355;SDS011;74539;43.518;1.504;2024-03-23T09:44:53;1.15;;;0.68;;
84355;SDS011;74539;43.518;1.504;2024-03-23T09:47:22;0.80;;;0.60;;
84355;SDS011;74539;43.518;1.504;2024-03-23T09:49:50;2.13;;;0.77;;
84355;SDS011;74539;43.518;1.504;2024-03-23T09:52:16;1.33;;;0.70;;
84355;SDS011;74539;43.518;1.504;2024-03-23T09:54:42;1.00;;;0.73;;
84355;SDS011;74539;43.518;1.504;2024-03-23T09:57:07;1.50;;;0.90;;
84355;SDS011;74539;43.518;1.504;2024-03-23T09:59:33;1.55;;;0.70;;
84355;SDS011;74539;43.518;1.504;2024-03-23T10:02:01;1.13;;;0.60;;
84355;SDS011;74539;43.518;1.504;2024-03-23T10:04:39;2.08;;;0.90;;
84355;SDS011;74539;43.518;1.504;2024-03-23T10:07:17;1.27;;;0.70;;
84355;SDS011;74539;43.518;1.504;2024-03-23T10:09:44;1.85;;;0.68;;
84355;SDS011;74539;43.518;1.504;2024-03-23T10:12:11;1.60;;;0.70;;
84355;SDS011;74539;43.518;1.504;2024-03-23T10:14:44;1.35;;;0.80;;
84355;SDS011;74539;43.518;1.504;2024-03-23T10:19:46;1.20;;;0.70;;
84355;SDS011;74539;43.518;1.504;2024-03-23T10:22:17;2.80;;;1.00;;
84355;SDS011;74539;43.518;1.504;2024-03-23T10:24:52;2.38;;;1.05;;
84355;SDS011;74539;43.518;1.504;2024-03-23T10:27:19;1.40;;;0.80;;
84355;SDS011;74539;43.518;1.504;2024-03-23T10:29:46;0.98;;;0.70;;
84355;SDS011;74539;43.518;1.504;2024-03-23T10:32:15;1.10;;;0.75;;
84355;SDS011;74539;43.518;1.504;2024-03-23T10:34:43;1.25;;;0.80;;
84355;SDS011;74539;43.518;1.504;2024-03-23T10:37:09;2.03;;;0.80;;
84355;SDS011;74539;43.518;1.504;2024-03-23T10:39:38;1.98;;;0.70;;
84355;SDS011;74539;43.518;1.504;2024-03-23T10:42:05;1.88;;;0.75;;
84355;SDS011;74539;43.518;1.504;2024-03-23T10:44:38;0.85;;;0.63;;
84355;SDS011;74539;43.518;1.504;2024-03-23T10:47:04;0.90;;;0.60;;
84355;SDS011;74539;43.518;1.504;2024-03-23T10:49:33;3.22;;;0.80;;
84355;SDS011;74539;43.518;1.504;2024-03-23T10:52:01;2.33;;;0.70;;
84355;SDS011;74539;43.518;1.504;2024-03-23T10:54:29;1.50;;;0.70;;
84355;SDS011;74539;43.518;1.504;2024-03-23T10:57:03;1.17;;;0.68;;
84355;SDS011;74539;43.518;1.504;2024-03-23T10:59:54;0.90;;;0.70;;
84355;SDS011;74539;43.518;1.504;2024-03-23T11:02:21;1.52;;;0.77;;
84355;SDS011;74539;43.518;1.504;2024-03-23T11:04:47;1.63;;;0.70;;
84355;SDS011;74539;43.518;1.504;2024-03-23T11:09:51;2.28;;;0.90;;
84355;SDS011;74539;43.518;1.504;2024-03-23T11:15:05;1.23;;;0.57;;
84355;SDS011;74539;43.518;1.504;2024-03-23T11:17:36;2.35;;;0.80;;
84355;SDS011;74539;43.518;1.504;2024-03-23T11:20:05;1.92;;;0.80;;
84355;SDS011;74539;43.518;1.504;2024-03-23T11:25:03;3.00;;;0.75;;
84355;SDS011;74539;43.518;1.504;2024-03-23T11:27:37;2.42;;;0.80;;
84355;SDS011;74539;43.518;1.504;2024-03-23T11:30:10;3.90;;;0.77;;
84355;SDS011;74539;43.518;1.504;2024-03-23T11:32:37;1.48;;;0.80;;
84355;SDS011;74539;43.518;1.504;2024-03-23T11:35:03;1.60;;;0.60;;
84355;SDS011;74539;43.518;1.504;2024-03-23T11:37:28;2.60;;;1.10;;
84355;SDS011;74539;43.518;1.504;2024-03-23T11:39:54;2.72;;;0.90;;
84355;SDS011;74539;43.518;1.504;2024-03-23T11:42:20;1.45;;;0.77;;
84355;SDS011;74539;43.518;1.504;2024-03-23T11:44:47;2.30;;;0.90;;
84355;SDS011;74539;43.518;1.504;2024-03-23T11:47:12;1.98;;;0.73;;
84355;SDS011;74539;43.518;1.504;2024-03-23T11:49:38;2.10;;;0.70;;
84355;SDS011;74539;43.518;1.504;2024-03-23T11:52:06;1.35;;;0.75;;
84355;SDS011;74539;43.518;1.504;2024-03-23T11:54:32;3.63;;;0.88;;
84355;SDS011;74539;43.518;1.504;2024-03-23T11:57:04;1.05;;;0.60;;
84355;SDS011;74539;43.518;1.504;2024-03-23T11:59:34;0.88;;;0.52;;
84355;SDS011;74539;43.518;1.504;2024-03-23T12:02:05;2.72;;;0.85;;
84355;SDS011;74539;43.518;1.504;2024-03-23T12:04:32;4.22;;;0.77;;
84355;SDS011;74539;43.518;1.504;2024-03-23T12:09:36;2.35;;;0.70;;
84355;SDS011;74539;43.518;1.504;2024-03-23T12:12:09;1.58;;;0.73;;
84355;SDS011;74539;43.518;1.504;2024-03-23T12:14:36;1.20;;;0.50;;
84355;SDS011;74539;43.518;1.504;2024-03-23T12:17:14;1.52;;;0.80;;
84355;SDS011;74539;43.518;1.504;2024-03-23T12:19:40;2.10;;;0.68;;
84355;SDS011;74539;43.518;1.504;2024-03-23T12:22:07;1.23;;;0.60;;
84355;SDS011;74539;43.518;1.504;2024-03-23T12:24:35;2.22;;;0.80;;
84355;SDS011;74539;43.518;1.504;2024-03-23T12:29:30;1.88;;;0.60;;
84355;SDS011;74539;43.518;1.504;2024-03-23T12:32:00;2.10;;;0.60;;
84355;SDS011;74539;43.518;1.504;2024-03-23T12:34:27;1.98;;;0.70;;
84355;SDS011;74539;43.518;1.504;2024-03-23T12:36:53;2.58;;;0.63;;
84355;SDS011;74539;43.518;1.504;2024-03-23T12:39:19;1.45;;;0.75;;
84355;SDS011;74539;43.518;1.504;2024-03-23T12:41:48;1.23;;;0.70;;
84355;SDS011;74539;43.518;1.504;2024-03-23T12:44:15;1.67;;;0.70;;
84355;SDS011;74539;43.518;1.504;2024-03-23T12:46:41;1.73;;;0.70;;
84355;SDS011;74539;43.518;1.504;2024-03-23T12:49:07;1.05;;;0.57;;
84355;SDS011;74539;43.518;1.504;2024-03-23T12:51:33;1.55;;;0.65;;
84355;SDS011;74539;43.518;1.504;2024-03-23T12:53:59;1.55;;;0.60;;
84355;SDS011;74539;43.518;1.504;2024-03-23T12:56:25;0.77;;;0.50;;
84355;SDS011;74539;43.518;1.504;2024-03-23T12:58:53;1.60;;;0.70;;
84355;SDS011;74539;43.518;1.504;2024-03-23T13:01:20;1.98;;;0.55;;
84355;SDS011;74539;43.518;1.504;2024-03-23T13:03:49;1.13;;;0.55;;
84355;SDS011;74539;43.518;1.504;2024-03-23T13:06:16;1.75;;;0.50;;
84355;SDS011;74539;43.518;1.504;2024-03-23T13:08:46;2.22;;;0.80;;
84355;SDS011;74539;43.518;1.504;2024-03-23T13:11:14;0.90;;;0.45;;
84355;SDS011;74539;43.518;1.504;2024-03-23T13:13:41;2.08;;;0.50;;
84355;SDS011;74539;43.518;1.504;2024-03-23T13:16:07;2.58;;;0.73;;
84355;SDS011;74539;43.518;1.504;2024-03-23T13:18:33;1.45;;;0.50;;
84355;SDS011;74539;43.518;1.504;2024-03-23T13:20:59;0.90;;;0.50;;
84355;SDS011;74539;43.518;1.504;2024-03-23T13:23:25;1.52;;;0.47;;
84355;SDS011;74539;43.518;1.504;2024-03-23T13:25:51;1.48;;;0.40;;
84355;SDS011;74539;43.518;1.504;2024-03-23T13:28:18;2.42;;;0.75;;
84355;SDS011;74539;43.518;1.504;2024-03-23T13:30:51;1.02;;;0.50;;
84355;SDS011;74539;43.518;1.504;2024-03-23T13:33:17;1.50;;;0.55;;
84355;SDS011;74539;43.518;1.504;2024-03-23T13:35:50;0.80;;;0.50;;
84355;SDS011;74539;43.518;1.504;2024-03-23T13:38:15;1.90;;;0.60;;
84355;SDS011;74539;43.518;1.504;2024-03-23T13:40:48;2.17;;;0.60;;
84355;SDS011;74539;43.518;1.504;2024-03-23T13:43:18;2.72;;;0.68;;
84355;SDS011;74539;43.518;1.504;2024-03-23T13:45:44;2.35;;;0.73;;
84355;SDS011;74539;43.518;1.504;2024-03-23T13:48:11;2.25;;;0.57;;
84355;SDS011;74539;43.518;1.504;2024-03-23T13:50:37;0.30;;;0.30;;
84355;SDS011;74539;43.518;1.504;2024-03-23T13:53:02;1.95;;;0.55;;
84355;SDS011;74539;43.518;1.504;2024-03-23T13:55:28;0.90;;;0.50;;
84355;SDS011;74539;43.518;1.504;2024-03-23T13:57:54;1.05;;;0.40;;
84355;SDS011;74539;43.518;1.504;2024-03-23T14:00:19;0.85;;;0.35;;
84355;SDS011;74539;43.518;1.504;2024-03-23T14:02:45;1.63;;;0.40;;
84355;SDS011;74539;43.518;1.504;2024-03-23T14:05:11;0.98;;;0.40;;
84355;SDS011;74539;43.518;1.504;2024-03-23T14:07:37;1.17;;;0.40;;
84355;SDS011;74539;43.518;1.504;2024-03-23T14:10:03;1.33;;;0.60;;
84355;SDS011;74539;43.518;1.504;2024-03-23T14:12:31;2.83;;;0.63;;
84355;SDS011;74539;43.518;1.504;2024-03-23T14:14:57;1.50;;;0.50;;
84355;SDS011;74539;43.518;1.504;2024-03-23T14:17:23;1.95;;;0.65;;
84355;SDS011;74539;43.518;1.504;2024-03-23T14:19:49;0.95;;;0.30;;
84355;SDS011;74539;43.518;1.504;2024-03-23T14:22:15;0.93;;;0.60;;
84355;SDS011;74539;43.518;1.504;2024-03-23T14:24:46;1.25;;;0.40;;
84355;SDS011;74539;43.518;1.504;2024-03-23T14:27:11;1.85;;;0.50;;
84355;SDS011;74539;43.518;1.504;2024-03-23T14:29:37;1.33;;;0.50;;
84355;SDS011;74539;43.518;1.504;2024-03-23T14:32:03;2.35;;;0.38;;
84355;SDS011;74539;43.518;1.504;2024-03-23T14:34:28;1.73;;;0.45;;
84355;SDS011;74539;43.518;1.504;2024-03-23T14:36:54;1.33;;;0.50;;
84355;SDS011;74539;43.518;1.504;2024-03-23T14:39:23;1.02;;;0.50;;
84355;SDS011;74539;43.518;1.504;2024-03-23T14:41:52;0.80;;;0.55;;
84355;SDS011;74539;43.518;1.504;2024-03-23T14:44:18;1.63;;;0.32;;
84355;SDS011;74539;43.518;1.504;2024-03-23T14:46:44;1.05;;;0.50;;
84355;SDS011;74539;43.518;1.504;2024-03-23T14:49:14;1.48;;;0.63;;
84355;SDS011;74539;43.518;1.504;2024-03-23T14:51:43;1.02;;;0.63;;
84355;SDS011;74539;43.518;1.504;2024-03-23T14:54:08;0.47;;;0.40;;
84355;SDS011;74539;43.518;1.504;2024-03-23T14:56:35;1.88;;;0.60;;
84355;SDS011;74539;43.518;1.504;2024-03-23T14:59:00;2.47;;;0.50;;
84355;SDS011;74539;43.518;1.504;2024-03-23T15:01:26;2.47;;;0.60;;
84355;SDS011;74539;43.518;1.504;2024-03-23T15:03:52;0.75;;;0.32;;
84355;SDS011;74539;43.518;1.504;2024-03-23T15:06:18;0.47;;;0.30;;
84355;SDS011;74539;43.518;1.504;2024-03-23T15:08:44;0.85;;;0.50;;
84355;SDS011;74539;43.518;1.504;2024-03-23T15:11:10;0.80;;;0.40;;
84355;SDS011;74539;43.518;1.504;2024-03-23T15:13:36;0.60;;;0.40;;
84355;SDS011;74539;43.518;1.504;2024-03-23T15:16:03;1.98;;;0.43;;
84355;SDS011;74539;43.518;1.504;2024-03-23T15:18:30;0.93;;;0.50;;
84355;SDS011;74539;43.518;1.504;2024-03-23T15:21:01;1.60;;;0.30;;
84355;SDS011;74539;43.518;1.504;2024-03-23T15:23:28;1.90;;;0.50;;
84355;SDS011;74539;43.518;1.504;2024-03-23T15:25:58;1.10;;;0.52;;
84355;SDS011;74539;43.518;1.504;2024-03-23T15:28:25;3.72;;;0.40;;
84355;SDS011;74539;43.518;1.504;2024-03-23T15:31:02;1.60;;;0.43;;
84355;SDS011;74539;43.518;1.504;2024-03-23T15:33:32;0.68;;;0.30;;
84355;SDS011;74539;43.518;1.504;2024-03-23T15:36:01;2.85;;;0.50;;
84355;SDS011;74539;43.518;1.504;2024-03-23T15:38:27;1.13;;;0.40;;
84355;SDS011;74539;43.518;1.504;2024-03-23T15:40:54;2.17;;;0.50;;
84355;SDS011;74539;43.518;1.504;2024-03-23T15:43:20;1.23;;;0.47;;
84355;SDS011;74539;43.518;1.504;2024-03-23T15:45:55;1.67;;;0.40;;
84355;SDS011;74539;43.518;1.504;2024-03-23T15:48:22;1.35;;;0.40;;
84355;SDS011;74539;43.518;1.504;2024-03-23T15:50:51;1.20;;;0.40;;
84355;SDS011;74539;43.518;1.504;2024-03-23T15:53:29;2.92;;;0.73;;
84355;SDS011;74539;43.518;1.504;2024-03-23T15:55:55;1.73;;;0.77;;
84355;SDS011;74539;43.518;1.504;2024-03-23T15:58:25;1.15;;;0.50;;